This is the latest recevied weather packets stored in our database for station/object W1ERB-13. If no packets are shown the sender has not sent any weather packets the latest 10 day(s).
| Time | Temp. | Humidity | Pressure | Rain* | Wind** | Luminosity | Snow |
|---|---|---|---|---|---|---|---|
| 1777834948 | 12.78° C | 34% | 1008.7 hPa | 0 mm | - | 737 W/m² | - |
| 1777834646 | 14.44° C | 32% | 1008.5 hPa | 0 mm | - | 724 W/m² | - |
| 1777834341 | 12.22° C | 35% | 1008.8 hPa | 0 mm | - | 801 W/m² | - |
| 1777834036 | 13.33° C | 34% | 1008.6 hPa | 0 mm | - | 221 W/m² | - |
| 1777833732 | 12.22° C | 36% | 1008.7 hPa | 0 mm | - | 743 W/m² | - |
| 1777833429 | 12.22° C | 36% | 1008.6 hPa | 0 mm | - | 378 W/m² | - |
| 1777833126 | 12.22° C | 36% | 1008.7 hPa | 0 mm | - | 897 W/m² | - |
| 1777832824 | 13.33° C | 35% | 1008.7 hPa | 0 mm | - | 827 W/m² | - |
| 1777832523 | 12.78° C | 34% | 1008.5 hPa | 0 mm | - | 318 W/m² | - |
| 1777832218 | 12.22° C | 35% | 1008.7 hPa | 0 mm | - | 933 W/m² | - |
| 1777831915 | 11.67° C | 38% | 1008.6 hPa | 0 mm | - | 371 W/m² | - |
| 1777831612 | 11.67° C | 38% | 1008.8 hPa | 0 mm | - | 391 W/m² | - |
| 1777831311 | 11.67° C | 36% | 1008.8 hPa | 0 mm | - | 337 W/m² | - |
| 1777831007 | 11.67° C | 36% | 1008.6 hPa | 0 mm | - | 938 W/m² | - |
| 1777830705 | 11.11° C | 40% | 1009 hPa | 0 mm | - | 278 W/m² | - |
| 1777830400 | 11.67° C | 37% | 1008.8 hPa | 0 mm | - | 222 W/m² | - |
| 1777830098 | 12.22° C | 40% | 1008.8 hPa | 0 mm | - | 368 W/m² | - |
| 1777829793 | 11.11° C | 43% | 1009.1 hPa | 0 mm | - | 489 W/m² | - |
| 1777829489 | 10.56° C | 42% | 1009 hPa | 0 mm | - | 459 W/m² | - |
| 1777829181 | 11.11° C | 44% | 1009 hPa | 0 mm | - | 527 W/m² | - |
| 1777828878 | 10° C | 44% | 1009.2 hPa | 0 mm | - | 318 W/m² | - |
| 1777828575 | 10° C | 43% | 1009.3 hPa | 0 mm | - | 557 W/m² | - |
| 1777828272 | 10.56° C | 43% | 1009.2 hPa | 0 mm | - | 291 W/m² | - |
| 1777827969 | 10.56° C | 43% | 1009.1 hPa | 0 mm | - | 396 W/m² | - |
| 1777827665 | 10.56° C | 43% | 1009.2 hPa | 0 mm | - | 326 W/m² | - |
* Rain latest hour (hover to see other rain measurements)
** Current wind speed in m/s (hover to see current wind gust speed)